sensor_id;sensor_type;location;lat;lon;timestamp;temperature;humidity
20364;DHT22;10340;53.664;9.908;2022-09-09T00:00:13;14.70;99.90
20364;DHT22;10340;53.664;9.908;2022-09-09T00:02:43;14.70;99.90
20364;DHT22;10340;53.664;9.908;2022-09-09T00:05:19;14.70;99.90
20364;DHT22;10340;53.664;9.908;2022-09-09T00:07:51;14.70;99.90
20364;DHT22;10340;53.664;9.908;2022-09-09T00:10:22;14.70;99.90
20364;DHT22;10340;53.664;9.908;2022-09-09T00:12:59;14.70;99.90
20364;DHT22;10340;53.664;9.908;2022-09-09T00:15:32;14.80;99.90
20364;DHT22;10340;53.664;9.908;2022-09-09T00:18:07;14.80;99.90
20364;DHT22;10340;53.664;9.908;2022-09-09T00:20:45;14.80;99.90
20364;DHT22;10340;53.664;9.908;2022-09-09T00:23:21;14.80;99.90
20364;DHT22;10340;53.664;9.908;2022-09-09T00:25:57;14.80;99.90
20364;DHT22;10340;53.664;9.908;2022-09-09T00:28:27;14.80;99.90
20364;DHT22;10340;53.664;9.908;2022-09-09T00:30:59;14.80;99.90
20364;DHT22;10340;53.664;9.908;2022-09-09T00:33:27;14.80;99.90
20364;DHT22;10340;53.664;9.908;2022-09-09T00:35:57;14.80;99.90
20364;DHT22;10340;53.664;9.908;2022-09-09T00:38:28;14.80;99.90
20364;DHT22;10340;53.664;9.908;2022-09-09T00:41:03;14.90;99.90
20364;DHT22;10340;53.664;9.908;2022-09-09T00:43:35;14.90;99.90
20364;DHT22;10340;53.664;9.908;2022-09-09T00:46:26;14.90;99.90
20364;DHT22;10340;53.664;9.908;2022-09-09T00:49:03;14.90;99.90
20364;DHT22;10340;53.664;9.908;2022-09-09T00:51:41;14.90;99.90
20364;DHT22;10340;53.664;9.908;2022-09-09T00:54:27;14.90;99.90
20364;DHT22;10340;53.664;9.908;2022-09-09T00:57:06;14.90;99.90
20364;DHT22;10340;53.664;9.908;2022-09-09T00:59:45;14.90;99.90
20364;DHT22;10340;53.664;9.908;2022-09-09T01:02:20;15.00;99.90
20364;DHT22;10340;53.664;9.908;2022-09-09T01:04:48;15.00;99.90
20364;DHT22;10340;53.664;9.908;2022-09-09T01:07:18;15.00;99.90
20364;DHT22;10340;53.664;9.908;2022-09-09T01:09:52;15.00;99.90
20364;DHT22;10340;53.664;9.908;2022-09-09T01:12:25;15.00;99.90
20364;DHT22;10340;53.664;9.908;2022-09-09T01:14:57;15.00;99.90
20364;DHT22;10340;53.664;9.908;2022-09-09T01:17:31;15.00;99.90
20364;DHT22;10340;53.664;9.908;2022-09-09T01:20:05;14.90;99.90
20364;DHT22;10340;53.664;9.908;2022-09-09T01:22:40;14.90;99.90
20364;DHT22;10340;53.664;9.908;2022-09-09T01:25:27;14.90;99.90
20364;DHT22;10340;53.664;9.908;2022-09-09T01:27:58;14.90;99.90
20364;DHT22;10340;53.664;9.908;2022-09-09T01:30:28;14.80;99.90
20364;DHT22;10340;53.664;9.908;2022-09-09T01:32:56;14.80;99.90
20364;DHT22;10340;53.664;9.908;2022-09-09T01:35:42;14.80;99.90
20364;DHT22;10340;53.664;9.908;2022-09-09T01:38:12;14.80;99.90
20364;DHT22;10340;53.664;9.908;2022-09-09T01:40:39;14.80;99.90
20364;DHT22;10340;53.664;9.908;2022-09-09T01:43:07;14.70;99.90
20364;DHT22;10340;53.664;9.908;2022-09-09T01:45:34;14.80;99.90
20364;DHT22;10340;53.664;9.908;2022-09-09T01:48:02;14.70;99.90
20364;DHT22;10340;53.664;9.908;2022-09-09T01:50:29;14.70;99.90
20364;DHT22;10340;53.664;9.908;2022-09-09T01:52:59;14.70;99.90
20364;DHT22;10340;53.664;9.908;2022-09-09T01:55:29;14.70;99.90
20364;DHT22;10340;53.664;9.908;2022-09-09T01:58:09;14.70;99.90
20364;DHT22;10340;53.664;9.908;2022-09-09T02:00:42;14.70;99.90
20364;DHT22;10340;53.664;9.908;2022-09-09T02:03:18;14.70;99.90
20364;DHT22;10340;53.664;9.908;2022-09-09T02:05:52;14.70;99.90
20364;DHT22;10340;53.664;9.908;2022-09-09T02:08:24;14.70;99.90
20364;DHT22;10340;53.664;9.908;2022-09-09T02:10:56;14.70;99.90
20364;DHT22;10340;53.664;9.908;2022-09-09T02:13:25;14.70;99.90
20364;DHT22;10340;53.664;9.908;2022-09-09T02:15:55;14.70;99.90
20364;DHT22;10340;53.664;9.908;2022-09-09T02:18:26;14.70;99.90
20364;DHT22;10340;53.664;9.908;2022-09-09T02:20:54;14.60;99.90
20364;DHT22;10340;53.664;9.908;2022-09-09T02:23:21;14.70;99.90
20364;DHT22;10340;53.664;9.908;2022-09-09T02:25:49;14.70;99.90
20364;DHT22;10340;53.664;9.908;2022-09-09T02:28:20;14.60;99.90
20364;DHT22;10340;53.664;9.908;2022-09-09T02:30:51;14.60;99.90
20364;DHT22;10340;53.664;9.908;2022-09-09T02:33:21;14.60;99.90
20364;DHT22;10340;53.664;9.908;2022-09-09T02:35:50;14.60;99.90
20364;DHT22;10340;53.664;9.908;2022-09-09T02:38:19;14.60;99.90
20364;DHT22;10340;53.664;9.908;2022-09-09T02:40:47;14.60;99.90
20364;DHT22;10340;53.664;9.908;2022-09-09T02:43:14;14.50;99.90
20364;DHT22;10340;53.664;9.908;2022-09-09T02:45:47;14.50;99.90
20364;DHT22;10340;53.664;9.908;2022-09-09T02:48:23;14.60;99.90
20364;DHT22;10340;53.664;9.908;2022-09-09T02:50:56;14.50;99.90
20364;DHT22;10340;53.664;9.908;2022-09-09T02:53:32;14.50;99.90
20364;DHT22;10340;53.664;9.908;2022-09-09T02:56:04;14.50;99.90
20364;DHT22;10340;53.664;9.908;2022-09-09T02:58:32;14.50;99.90
20364;DHT22;10340;53.664;9.908;2022-09-09T03:01:00;14.40;99.90
20364;DHT22;10340;53.664;9.908;2022-09-09T03:03:29;14.40;99.90
20364;DHT22;10340;53.664;9.908;2022-09-09T03:05:56;14.40;99.90
20364;DHT22;10340;53.664;9.908;2022-09-09T03:08:23;14.30;99.90
20364;DHT22;10340;53.664;9.908;2022-09-09T03:10:50;14.30;99.90
20364;DHT22;10340;53.664;9.908;2022-09-09T03:13:19;14.30;99.90
20364;DHT22;10340;53.664;9.908;2022-09-09T03:15:47;14.30;99.90
20364;DHT22;10340;53.664;9.908;2022-09-09T03:18:14;14.30;99.90
20364;DHT22;10340;53.664;9.908;2022-09-09T03:20:43;14.30;99.90
20364;DHT22;10340;53.664;9.908;2022-09-09T03:23:11;14.30;99.90
20364;DHT22;10340;53.664;9.908;2022-09-09T03:25:39;14.30;99.90
20364;DHT22;10340;53.664;9.908;2022-09-09T03:28:06;14.20;99.90
20364;DHT22;10340;53.664;9.908;2022-09-09T03:30:32;14.20;99.90
20364;DHT22;10340;53.664;9.908;2022-09-09T03:32:59;14.20;99.90
20364;DHT22;10340;53.664;9.908;2022-09-09T03:35:26;14.20;99.90
20364;DHT22;10340;53.664;9.908;2022-09-09T03:37:54;14.20;99.90
20364;DHT22;10340;53.664;9.908;2022-09-09T03:40:21;14.20;99.90
20364;DHT22;10340;53.664;9.908;2022-09-09T03:42:48;14.10;99.90
20364;DHT22;10340;53.664;9.908;2022-09-09T03:45:15;14.10;99.90
20364;DHT22;10340;53.664;9.908;2022-09-09T03:47:42;14.10;99.90
20364;DHT22;10340;53.664;9.908;2022-09-09T03:50:09;14.00;99.90
20364;DHT22;10340;53.664;9.908;2022-09-09T03:52:36;14.00;99.90
20364;DHT22;10340;53.664;9.908;2022-09-09T03:55:06;14.00;99.90
20364;DHT22;10340;53.664;9.908;2022-09-09T03:57:33;13.90;99.90
20364;DHT22;10340;53.664;9.908;2022-09-09T04:00:02;13.90;99.90
20364;DHT22;10340;53.664;9.908;2022-09-09T04:02:30;13.80;99.90
20364;DHT22;10340;53.664;9.908;2022-09-09T04:04:57;13.80;99.90
20364;DHT22;10340;53.664;9.908;2022-09-09T04:07:24;13.80;99.90
20364;DHT22;10340;53.664;9.908;2022-09-09T04:09:52;13.70;99.90
20364;DHT22;10340;53.664;9.908;2022-09-09T04:12:21;13.70;99.90
20364;DHT22;10340;53.664;9.908;2022-09-09T04:14:48;13.60;99.90
20364;DHT22;10340;53.664;9.908;2022-09-09T04:17:14;13.50;99.90
20364;DHT22;10340;53.664;9.908;2022-09-09T04:19:42;13.60;99.90
20364;DHT22;10340;53.664;9.908;2022-09-09T04:22:09;13.60;99.90
20364;DHT22;10340;53.664;9.908;2022-09-09T04:24:36;13.50;99.90
20364;DHT22;10340;53.664;9.908;2022-09-09T04:27:03;13.50;99.90
20364;DHT22;10340;53.664;9.908;2022-09-09T04:29:31;13.50;99.90
20364;DHT22;10340;53.664;9.908;2022-09-09T04:31:58;13.40;99.90
20364;DHT22;10340;53.664;9.908;2022-09-09T04:34:25;13.50;99.90
20364;DHT22;10340;53.664;9.908;2022-09-09T04:36:52;13.50;99.90
20364;DHT22;10340;53.664;9.908;2022-09-09T04:39:19;13.50;99.90
20364;DHT22;10340;53.664;9.908;2022-09-09T04:41:46;13.50;99.90
20364;DHT22;10340;53.664;9.908;2022-09-09T04:44:13;13.50;99.90
20364;DHT22;10340;53.664;9.908;2022-09-09T04:46:41;13.50;99.90
20364;DHT22;10340;53.664;9.908;2022-09-09T04:49:08;13.50;99.90
20364;DHT22;10340;53.664;9.908;2022-09-09T04:51:35;13.50;99.90
20364;DHT22;10340;53.664;9.908;2022-09-09T04:54:02;13.50;99.90
20364;DHT22;10340;53.664;9.908;2022-09-09T04:56:29;13.60;99.90
20364;DHT22;10340;53.664;9.908;2022-09-09T04:58:55;13.60;99.90
20364;DHT22;10340;53.664;9.908;2022-09-09T05:01:22;13.60;99.90
20364;DHT22;10340;53.664;9.908;2022-09-09T05:03:51;13.60;99.90
20364;DHT22;10340;53.664;9.908;2022-09-09T05:06:20;13.60;99.90
20364;DHT22;10340;53.664;9.908;2022-09-09T05:08:47;13.60;99.90
20364;DHT22;10340;53.664;9.908;2022-09-09T05:11:19;13.60;99.90
20364;DHT22;10340;53.664;9.908;2022-09-09T05:13:46;13.70;99.90
20364;DHT22;10340;53.664;9.908;2022-09-09T05:16:14;13.70;99.90
20364;DHT22;10340;53.664;9.908;2022-09-09T05:18:41;13.70;99.90
20364;DHT22;10340;53.664;9.908;2022-09-09T05:21:11;13.70;99.90
20364;DHT22;10340;53.664;9.908;2022-09-09T05:23:38;13.70;99.90
20364;DHT22;10340;53.664;9.908;2022-09-09T05:26:06;13.60;99.90
20364;DHT22;10340;53.664;9.908;2022-09-09T05:28:34;13.60;99.90
20364;DHT22;10340;53.664;9.908;2022-09-09T05:31:03;13.60;99.90
20364;DHT22;10340;53.664;9.908;2022-09-09T05:33:31;13.60;99.90
20364;DHT22;10340;53.664;9.908;2022-09-09T05:35:59;13.70;99.90
20364;DHT22;10340;53.664;9.908;2022-09-09T05:38:28;13.60;99.90
20364;DHT22;10340;53.664;9.908;2022-09-09T05:40:56;13.60;99.90
20364;DHT22;10340;53.664;9.908;2022-09-09T05:43:24;13.60;99.90
20364;DHT22;10340;53.664;9.908;2022-09-09T05:45:59;13.60;99.90
20364;DHT22;10340;53.664;9.908;2022-09-09T05:48:28;13.60;99.90
20364;DHT22;10340;53.664;9.908;2022-09-09T05:50:56;13.60;99.90
20364;DHT22;10340;53.664;9.908;2022-09-09T05:53:23;13.70;99.90
20364;DHT22;10340;53.664;9.908;2022-09-09T05:55:58;13.70;99.90
20364;DHT22;10340;53.664;9.908;2022-09-09T05:58:25;13.80;99.90
20364;DHT22;10340;53.664;9.908;2022-09-09T06:00:52;13.90;99.90
20364;DHT22;10340;53.664;9.908;2022-09-09T06:03:20;13.80;99.90
20364;DHT22;10340;53.664;9.908;2022-09-09T06:05:57;13.90;99.90
20364;DHT22;10340;53.664;9.908;2022-09-09T06:08:24;14.00;99.90
20364;DHT22;10340;53.664;9.908;2022-09-09T06:10:52;14.10;99.90
20364;DHT22;10340;53.664;9.908;2022-09-09T06:13:19;14.20;99.90
20364;DHT22;10340;53.664;9.908;2022-09-09T06:15:49;14.20;99.90
20364;DHT22;10340;53.664;9.908;2022-09-09T06:18:17;14.30;99.90
20364;DHT22;10340;53.664;9.908;2022-09-09T06:20:53;14.40;99.90
20364;DHT22;10340;53.664;9.908;2022-09-09T06:23:20;14.50;99.90
20364;DHT22;10340;53.664;9.908;2022-09-09T06:25:47;14.50;99.90
20364;DHT22;10340;53.664;9.908;2022-09-09T06:28:16;14.60;99.90
20364;DHT22;10340;53.664;9.908;2022-09-09T06:30:43;14.70;99.90
20364;DHT22;10340;53.664;9.908;2022-09-09T06:33:10;14.70;99.90
20364;DHT22;10340;53.664;9.908;2022-09-09T06:35:37;14.80;99.90
20364;DHT22;10340;53.664;9.908;2022-09-09T06:38:03;14.80;99.90
20364;DHT22;10340;53.664;9.908;2022-09-09T06:40:31;14.90;99.90
20364;DHT22;10340;53.664;9.908;2022-09-09T06:43:00;14.80;99.90
20364;DHT22;10340;53.664;9.908;2022-09-09T06:45:28;14.90;99.90
20364;DHT22;10340;53.664;9.908;2022-09-09T06:47:55;14.90;99.90
20364;DHT22;10340;53.664;9.908;2022-09-09T06:50:23;15.00;99.90
20364;DHT22;10340;53.664;9.908;2022-09-09T06:52:50;15.00;99.90
20364;DHT22;10340;53.664;9.908;2022-09-09T06:55:17;15.10;99.90
20364;DHT22;10340;53.664;9.908;2022-09-09T06:57:44;15.20;99.90
20364;DHT22;10340;53.664;9.908;2022-09-09T07:00:12;15.30;99.90
20364;DHT22;10340;53.664;9.908;2022-09-09T07:02:41;15.50;99.90
20364;DHT22;10340;53.664;9.908;2022-09-09T07:05:08;15.60;99.90
20364;DHT22;10340;53.664;9.908;2022-09-09T07:07:36;15.70;99.90
20364;DHT22;10340;53.664;9.908;2022-09-09T07:10:03;15.80;99.90
20364;DHT22;10340;53.664;9.908;2022-09-09T07:12:30;15.90;99.90
20364;DHT22;10340;53.664;9.908;2022-09-09T07:14:57;15.90;99.90
20364;DHT22;10340;53.664;9.908;2022-09-09T07:17:24;16.00;99.90
20364;DHT22;10340;53.664;9.908;2022-09-09T07:19:52;16.00;99.90
20364;DHT22;10340;53.664;9.908;2022-09-09T07:22:19;16.00;99.90
20364;DHT22;10340;53.664;9.908;2022-09-09T07:24:46;16.10;99.90
20364;DHT22;10340;53.664;9.908;2022-09-09T07:27:14;16.20;99.90
20364;DHT22;10340;53.664;9.908;2022-09-09T07:29:41;16.20;99.90
20364;DHT22;10340;53.664;9.908;2022-09-09T07:32:08;16.30;99.90
20364;DHT22;10340;53.664;9.908;2022-09-09T07:34:35;16.40;99.90
20364;DHT22;10340;53.664;9.908;2022-09-09T07:37:03;16.40;99.90
20364;DHT22;10340;53.664;9.908;2022-09-09T07:39:30;16.50;99.90
20364;DHT22;10340;53.664;9.908;2022-09-09T07:41:57;16.60;99.90
20364;DHT22;10340;53.664;9.908;2022-09-09T07:44:25;16.60;99.90
20364;DHT22;10340;53.664;9.908;2022-09-09T07:46:52;16.60;99.90
20364;DHT22;10340;53.664;9.908;2022-09-09T07:49:19;16.70;99.90
20364;DHT22;10340;53.664;9.908;2022-09-09T07:51:47;16.70;99.90
20364;DHT22;10340;53.664;9.908;2022-09-09T07:54:17;16.80;99.90
20364;DHT22;10340;53.664;9.908;2022-09-09T07:56:46;16.90;99.90
20364;DHT22;10340;53.664;9.908;2022-09-09T07:59:13;17.00;99.90
20364;DHT22;10340;53.664;9.908;2022-09-09T08:01:42;17.00;99.90
20364;DHT22;10340;53.664;9.908;2022-09-09T08:04:11;17.00;99.90
20364;DHT22;10340;53.664;9.908;2022-09-09T08:06:43;17.10;99.90
20364;DHT22;10340;53.664;9.908;2022-09-09T08:09:10;17.00;99.90
20364;DHT22;10340;53.664;9.908;2022-09-09T08:11:39;17.10;99.90
20364;DHT22;10340;53.664;9.908;2022-09-09T08:14:07;17.20;99.90
20364;DHT22;10340;53.664;9.908;2022-09-09T08:16:36;17.30;99.90
20364;DHT22;10340;53.664;9.908;2022-09-09T08:19:04;17.30;99.90
20364;DHT22;10340;53.664;9.908;2022-09-09T08:21:32;17.40;99.90
20364;DHT22;10340;53.664;9.908;2022-09-09T08:24:00;17.40;99.90
20364;DHT22;10340;53.664;9.908;2022-09-09T08:26:31;17.50;99.90
20364;DHT22;10340;53.664;9.908;2022-09-09T08:29:02;17.50;99.90
20364;DHT22;10340;53.664;9.908;2022-09-09T08:31:30;17.50;99.90
20364;DHT22;10340;53.664;9.908;2022-09-09T08:33:59;17.50;99.90
20364;DHT22;10340;53.664;9.908;2022-09-09T08:36:28;17.50;99.90
20364;DHT22;10340;53.664;9.908;2022-09-09T08:38:56;17.60;99.90
20364;DHT22;10340;53.664;9.908;2022-09-09T08:44:41;17.60;99.90
20364;DHT22;10340;53.664;9.908;2022-09-09T08:47:18;17.70;99.90
20364;DHT22;10340;53.664;9.908;2022-09-09T08:50:02;17.70;99.90
20364;DHT22;10340;53.664;9.908;2022-09-09T08:52:37;17.80;99.90
20364;DHT22;10340;53.664;9.908;2022-09-09T08:55:15;17.80;99.90
20364;DHT22;10340;53.664;9.908;2022-09-09T08:57:49;17.90;99.90
20364;DHT22;10340;53.664;9.908;2022-09-09T09:00:18;18.00;99.90
20364;DHT22;10340;53.664;9.908;2022-09-09T09:02:52;18.00;99.90
20364;DHT22;10340;53.664;9.908;2022-09-09T09:05:26;18.10;99.90
20364;DHT22;10340;53.664;9.908;2022-09-09T09:08:03;18.20;99.90
20364;DHT22;10340;53.664;9.908;2022-09-09T09:10:42;18.30;99.90
20364;DHT22;10340;53.664;9.908;2022-09-09T09:13:14;18.40;99.90
20364;DHT22;10340;53.664;9.908;2022-09-09T09:15:44;18.50;99.90
20364;DHT22;10340;53.664;9.908;2022-09-09T09:18:13;18.60;99.90
20364;DHT22;10340;53.664;9.908;2022-09-09T09:20:49;18.70;99.90
20364;DHT22;10340;53.664;9.908;2022-09-09T09:23:22;18.70;99.90
20364;DHT22;10340;53.664;9.908;2022-09-09T09:25:50;18.80;99.90
20364;DHT22;10340;53.664;9.908;2022-09-09T09:28:20;18.80;99.90
20364;DHT22;10340;53.664;9.908;2022-09-09T09:30:55;18.90;99.90
20364;DHT22;10340;53.664;9.908;2022-09-09T09:33:27;19.00;99.90
20364;DHT22;10340;53.664;9.908;2022-09-09T09:35:56;19.00;99.90
20364;DHT22;10340;53.664;9.908;2022-09-09T09:38:26;19.10;99.90
20364;DHT22;10340;53.664;9.908;2022-09-09T09:40:55;19.10;99.90
20364;DHT22;10340;53.664;9.908;2022-09-09T09:43:25;19.10;99.90
20364;DHT22;10340;53.664;9.908;2022-09-09T09:45:55;19.10;99.90
20364;DHT22;10340;53.664;9.908;2022-09-09T09:48:24;19.20;99.90
20364;DHT22;10340;53.664;9.908;2022-09-09T09:50:52;19.20;99.90
20364;DHT22;10340;53.664;9.908;2022-09-09T09:53:23;19.30;99.90
20364;DHT22;10340;53.664;9.908;2022-09-09T09:55:55;19.30;99.90
20364;DHT22;10340;53.664;9.908;2022-09-09T09:58:25;19.40;99.90
20364;DHT22;10340;53.664;9.908;2022-09-09T10:00:54;19.40;99.90
20364;DHT22;10340;53.664;9.908;2022-09-09T10:03:24;19.40;99.90
20364;DHT22;10340;53.664;9.908;2022-09-09T10:05:52;19.50;99.90
20364;DHT22;10340;53.664;9.908;2022-09-09T10:08:19;19.60;99.90
20364;DHT22;10340;53.664;9.908;2022-09-09T10:13:42;19.80;99.90
20364;DHT22;10340;53.664;9.908;2022-09-09T10:16:25;19.90;99.90
20364;DHT22;10340;53.664;9.908;2022-09-09T10:18:59;19.90;99.90
20364;DHT22;10340;53.664;9.908;2022-09-09T10:21:51;20.00;99.90
20364;DHT22;10340;53.664;9.908;2022-09-09T10:24:42;20.10;99.90
20364;DHT22;10340;53.664;9.908;2022-09-09T10:27:20;20.10;99.90
20364;DHT22;10340;53.664;9.908;2022-09-09T10:30:01;20.10;99.90
20364;DHT22;10340;53.664;9.908;2022-09-09T10:32:40;20.20;99.90
20364;DHT22;10340;53.664;9.908;2022-09-09T10:35:12;20.40;99.90
20364;DHT22;10340;53.664;9.908;2022-09-09T10:37:53;20.30;99.90
20364;DHT22;10340;53.664;9.908;2022-09-09T10:40:30;20.40;99.90
20364;DHT22;10340;53.664;9.908;2022-09-09T10:43:03;20.50;99.90
20364;DHT22;10340;53.664;9.908;2022-09-09T10:45:35;20.50;99.90
20364;DHT22;10340;53.664;9.908;2022-09-09T10:48:30;20.50;99.90
20364;DHT22;10340;53.664;9.908;2022-09-09T10:51:18;20.50;99.90
20364;DHT22;10340;53.664;9.908;2022-09-09T10:53:57;20.50;99.90
20364;DHT22;10340;53.664;9.908;2022-09-09T10:56:29;20.50;99.90
20364;DHT22;10340;53.664;9.908;2022-09-09T10:58:59;20.50;99.90
20364;DHT22;10340;53.664;9.908;2022-09-09T11:01:30;20.40;99.90
20364;DHT22;10340;53.664;9.908;2022-09-09T11:04:03;20.50;99.90
20364;DHT22;10340;53.664;9.908;2022-09-09T11:06:36;20.70;99.90
20364;DHT22;10340;53.664;9.908;2022-09-09T11:09:05;20.90;99.90
20364;DHT22;10340;53.664;9.908;2022-09-09T11:11:36;21.10;99.90
20364;DHT22;10340;53.664;9.908;2022-09-09T11:14:08;21.10;99.90
20364;DHT22;10340;53.664;9.908;2022-09-09T11:16:40;21.30;99.90
20364;DHT22;10340;53.664;9.908;2022-09-09T11:19:18;21.40;99.90
20364;DHT22;10340;53.664;9.908;2022-09-09T11:21:48;21.50;99.90
20364;DHT22;10340;53.664;9.908;2022-09-09T11:24:19;21.50;99.90
20364;DHT22;10340;53.664;9.908;2022-09-09T11:26:50;21.50;99.90
20364;DHT22;10340;53.664;9.908;2022-09-09T11:29:50;21.60;99.90
20364;DHT22;10340;53.664;9.908;2022-09-09T11:32:39;21.60;99.90
20364;DHT22;10340;53.664;9.908;2022-09-09T11:35:26;21.60;99.90
20364;DHT22;10340;53.664;9.908;2022-09-09T11:38:09;21.70;99.90
20364;DHT22;10340;53.664;9.908;2022-09-09T11:40:40;21.70;99.90
20364;DHT22;10340;53.664;9.908;2022-09-09T11:43:11;21.70;99.90
20364;DHT22;10340;53.664;9.908;2022-09-09T11:45:40;21.80;99.90
20364;DHT22;10340;53.664;9.908;2022-09-09T11:48:23;21.70;99.90
20364;DHT22;10340;53.664;9.908;2022-09-09T11:51:00;21.80;99.90
20364;DHT22;10340;53.664;9.908;2022-09-09T11:53:27;21.80;99.90
20364;DHT22;10340;53.664;9.908;2022-09-09T11:56:06;21.80;99.90
20364;DHT22;10340;53.664;9.908;2022-09-09T11:58:38;21.90;99.90
20364;DHT22;10340;53.664;9.908;2022-09-09T12:01:28;22.10;99.90
20364;DHT22;10340;53.664;9.908;2022-09-09T12:04:10;22.30;99.90
20364;DHT22;10340;53.664;9.908;2022-09-09T12:06:44;22.40;99.90
20364;DHT22;10340;53.664;9.908;2022-09-09T12:09:22;22.50;99.90
20364;DHT22;10340;53.664;9.908;2022-09-09T12:11:52;22.50;99.90
20364;DHT22;10340;53.664;9.908;2022-09-09T12:14:34;22.60;99.90
20364;DHT22;10340;53.664;9.908;2022-09-09T12:17:10;22.80;99.90
20364;DHT22;10340;53.664;9.908;2022-09-09T12:19:44;22.90;99.90
20364;DHT22;10340;53.664;9.908;2022-09-09T12:22:22;22.80;99.90
20364;DHT22;10340;53.664;9.908;2022-09-09T12:24:56;22.80;99.90
20364;DHT22;10340;53.664;9.908;2022-09-09T12:27:30;22.80;99.90
20364;DHT22;10340;53.664;9.908;2022-09-09T12:30:03;22.60;99.90
20364;DHT22;10340;53.664;9.908;2022-09-09T12:32:32;22.50;99.90
20364;DHT22;10340;53.664;9.908;2022-09-09T12:35:00;22.50;99.90
20364;DHT22;10340;53.664;9.908;2022-09-09T12:37:33;22.60;99.90
20364;DHT22;10340;53.664;9.908;2022-09-09T12:40:04;22.80;99.90
20364;DHT22;10340;53.664;9.908;2022-09-09T12:42:31;22.90;99.90
20364;DHT22;10340;53.664;9.908;2022-09-09T12:45:00;23.00;99.90
20364;DHT22;10340;53.664;9.908;2022-09-09T12:47:37;22.90;99.90
20364;DHT22;10340;53.664;9.908;2022-09-09T12:50:15;22.70;99.90
20364;DHT22;10340;53.664;9.908;2022-09-09T12:52:44;22.40;99.90
20364;DHT22;10340;53.664;9.908;2022-09-09T12:55:18;22.30;99.90
20364;DHT22;10340;53.664;9.908;2022-09-09T12:57:48;22.10;99.90
20364;DHT22;10340;53.664;9.908;2022-09-09T13:00:18;22.10;99.90
20364;DHT22;10340;53.664;9.908;2022-09-09T13:02:48;22.20;99.90
20364;DHT22;10340;53.664;9.908;2022-09-09T13:05:18;22.20;99.90
20364;DHT22;10340;53.664;9.908;2022-09-09T13:07:47;22.20;99.90
20364;DHT22;10340;53.664;9.908;2022-09-09T13:10:20;22.20;99.90
20364;DHT22;10340;53.664;9.908;2022-09-09T13:12:48;22.10;99.90
20364;DHT22;10340;53.664;9.908;2022-09-09T13:15:20;22.00;99.90
20364;DHT22;10340;53.664;9.908;2022-09-09T13:17:53;21.90;99.90
20364;DHT22;10340;53.664;9.908;2022-09-09T13:20:21;21.80;99.90
20364;DHT22;10340;53.664;9.908;2022-09-09T13:22:51;21.50;99.90
20364;DHT22;10340;53.664;9.908;2022-09-09T13:25:22;21.20;99.90
20364;DHT22;10340;53.664;9.908;2022-09-09T13:27:57;20.90;99.90
20364;DHT22;10340;53.664;9.908;2022-09-09T13:30:27;20.60;99.90
20364;DHT22;10340;53.664;9.908;2022-09-09T13:33:21;20.20;99.90
20364;DHT22;10340;53.664;9.908;2022-09-09T13:35:50;19.60;99.90
20364;DHT22;10340;53.664;9.908;2022-09-09T13:38:20;19.00;99.90
20364;DHT22;10340;53.664;9.908;2022-09-09T13:40:56;18.40;99.90
20364;DHT22;10340;53.664;9.908;2022-09-09T13:43:26;17.90;99.90
20364;DHT22;10340;53.664;9.908;2022-09-09T13:45:55;17.70;99.90
20364;DHT22;10340;53.664;9.908;2022-09-09T13:48:24;17.60;99.90
20364;DHT22;10340;53.664;9.908;2022-09-09T13:50:55;17.60;99.90
20364;DHT22;10340;53.664;9.908;2022-09-09T13:53:24;17.50;99.90
20364;DHT22;10340;53.664;9.908;2022-09-09T13:55:51;17.40;99.90
20364;DHT22;10340;53.664;9.908;2022-09-09T13:58:18;17.20;99.90
20364;DHT22;10340;53.664;9.908;2022-09-09T14:00:45;17.00;99.90
20364;DHT22;10340;53.664;9.908;2022-09-09T14:03:12;16.90;99.90
20364;DHT22;10340;53.664;9.908;2022-09-09T14:05:40;16.90;99.90
20364;DHT22;10340;53.664;9.908;2022-09-09T14:08:15;16.80;99.90
20364;DHT22;10340;53.664;9.908;2022-09-09T14:10:44;16.80;99.90
20364;DHT22;10340;53.664;9.908;2022-09-09T14:13:10;16.90;99.90
20364;DHT22;10340;53.664;9.908;2022-09-09T14:15:37;16.90;99.90
20364;DHT22;10340;53.664;9.908;2022-09-09T14:18:04;16.90;99.90
20364;DHT22;10340;53.664;9.908;2022-09-09T14:20:31;17.00;99.90
20364;DHT22;10340;53.664;9.908;2022-09-09T14:22:58;17.00;99.90
20364;DHT22;10340;53.664;9.908;2022-09-09T14:25:25;17.00;99.90
20364;DHT22;10340;53.664;9.908;2022-09-09T14:27:53;17.10;99.90
20364;DHT22;10340;53.664;9.908;2022-09-09T14:30:21;17.10;99.90
20364;DHT22;10340;53.664;9.908;2022-09-09T14:32:48;17.10;99.90
20364;DHT22;10340;53.664;9.908;2022-09-09T14:35:15;17.20;99.90
20364;DHT22;10340;53.664;9.908;2022-09-09T14:37:42;17.30;99.90
20364;DHT22;10340;53.664;9.908;2022-09-09T14:40:10;17.30;99.90
20364;DHT22;10340;53.664;9.908;2022-09-09T14:42:37;17.30;99.90
20364;DHT22;10340;53.664;9.908;2022-09-09T14:45:07;17.40;99.90
20364;DHT22;10340;53.664;9.908;2022-09-09T14:47:34;17.40;99.90
20364;DHT22;10340;53.664;9.908;2022-09-09T14:50:01;17.40;99.90
20364;DHT22;10340;53.664;9.908;2022-09-09T14:52:30;17.40;99.90
20364;DHT22;10340;53.664;9.908;2022-09-09T14:54:56;17.50;99.90
20364;DHT22;10340;53.664;9.908;2022-09-09T14:57:23;17.50;99.90
20364;DHT22;10340;53.664;9.908;2022-09-09T14:59:50;17.60;99.90
20364;DHT22;10340;53.664;9.908;2022-09-09T15:02:18;17.60;99.90
20364;DHT22;10340;53.664;9.908;2022-09-09T15:04:45;17.70;99.90
20364;DHT22;10340;53.664;9.908;2022-09-09T15:07:12;17.70;99.90
20364;DHT22;10340;53.664;9.908;2022-09-09T15:09:40;17.70;99.90
20364;DHT22;10340;53.664;9.908;2022-09-09T15:12:07;17.80;99.90
20364;DHT22;10340;53.664;9.908;2022-09-09T15:14:34;17.80;99.90
20364;DHT22;10340;53.664;9.908;2022-09-09T15:17:01;17.80;99.90
20364;DHT22;10340;53.664;9.908;2022-09-09T15:19:29;17.80;99.90
20364;DHT22;10340;53.664;9.908;2022-09-09T15:21:58;17.90;99.90
20364;DHT22;10340;53.664;9.908;2022-09-09T15:24:25;17.90;99.90
20364;DHT22;10340;53.664;9.908;2022-09-09T15:26:52;18.00;99.90
20364;DHT22;10340;53.664;9.908;2022-09-09T15:29:19;18.00;99.90
20364;DHT22;10340;53.664;9.908;2022-09-09T15:31:46;18.00;99.90
20364;DHT22;10340;53.664;9.908;2022-09-09T15:34:13;18.00;99.90
20364;DHT22;10340;53.664;9.908;2022-09-09T15:36:42;17.90;99.90
20364;DHT22;10340;53.664;9.908;2022-09-09T15:39:10;17.80;99.90
20364;DHT22;10340;53.664;9.908;2022-09-09T15:41:38;17.90;99.90
20364;DHT22;10340;53.664;9.908;2022-09-09T15:44:05;17.90;99.90
20364;DHT22;10340;53.664;9.908;2022-09-09T15:46:33;18.00;99.90
20364;DHT22;10340;53.664;9.908;2022-09-09T15:49:04;18.10;99.90
20364;DHT22;10340;53.664;9.908;2022-09-09T15:51:32;18.10;99.90
20364;DHT22;10340;53.664;9.908;2022-09-09T15:54:00;18.20;99.90
20364;DHT22;10340;53.664;9.908;2022-09-09T15:56:28;18.20;99.90